sensor_id;sensor_type;location;lat;lon;timestamp;pressure;altitude;pressure_sealevel;temperature;humidity
41596;BME280;27283;52.504;13.358;2022-12-11T00:00:33;100736.97;;;-0.03;68.60
41596;BME280;27283;52.504;13.358;2022-12-11T00:03:25;100734.06;;;0.42;67.00
41596;BME280;27283;52.504;13.358;2022-12-11T00:05:58;100737.38;;;0.46;66.19
41596;BME280;27283;52.504;13.358;2022-12-11T00:08:30;100723.72;;;0.92;65.23
41596;BME280;27283;52.504;13.358;2022-12-11T00:11:07;100724.50;;;0.67;65.40
41596;BME280;27283;52.504;13.358;2022-12-11T00:13:40;100718.34;;;0.66;65.05
41596;BME280;27283;52.504;13.358;2022-12-11T00:16:13;100714.66;;;0.56;65.92
41596;BME280;27283;52.504;13.358;2022-12-11T00:18:50;100716.06;;;0.34;66.24
41596;BME280;27283;52.504;13.358;2022-12-11T00:21:46;100712.78;;;0.71;65.07
41596;BME280;27283;52.504;13.358;2022-12-11T00:24:18;100720.84;;;0.82;64.32
41596;BME280;27283;52.504;13.358;2022-12-11T00:27:00;100719.00;;;0.70;64.76
41596;BME280;27283;52.504;13.358;2022-12-11T00:29:32;100717.63;;;0.64;64.86
41596;BME280;27283;52.504;13.358;2022-12-11T00:32:08;100725.03;;;0.72;65.20
41596;BME280;27283;52.504;13.358;2022-12-11T00:34:43;100727.66;;;-0.23;67.21
41596;BME280;27283;52.504;13.358;2022-12-11T00:37:16;100725.03;;;-0.23;68.44
41596;BME280;27283;52.504;13.358;2022-12-11T00:39:52;100726.88;;;-0.10;67.79
41596;BME280;27283;52.504;13.358;2022-12-11T00:42:28;100724.28;;;0.03;66.97
41596;BME280;27283;52.504;13.358;2022-12-11T00:45:00;100721.22;;;0.23;66.63
41596;BME280;27283;52.504;13.358;2022-12-11T00:47:32;100729.19;;;-0.33;68.35
41596;BME280;27283;52.504;13.358;2022-12-11T00:50:05;100722.41;;;0.05;67.90
41596;BME280;27283;52.504;13.358;2022-12-11T00:52:38;100722.03;;;-0.45;68.93
41596;BME280;27283;52.504;13.358;2022-12-11T00:55:10;100721.28;;;-0.06;67.80
41596;BME280;27283;52.504;13.358;2022-12-11T00:57:46;100725.09;;;0.17;67.00
41596;BME280;27283;52.504;13.358;2022-12-11T01:00:18;100711.53;;;0.49;66.38
41596;BME280;27283;52.504;13.358;2022-12-11T01:02:50;100715.44;;;0.84;65.35
41596;BME280;27283;52.504;13.358;2022-12-11T01:05:23;100709.63;;;1.04;63.99
41596;BME280;27283;52.504;13.358;2022-12-11T01:07:55;100716.41;;;0.96;64.66
41596;BME280;27283;52.504;13.358;2022-12-11T01:10:30;100708.56;;;1.07;63.93
41596;BME280;27283;52.504;13.358;2022-12-11T01:13:04;100709.38;;;0.29;65.80
41596;BME280;27283;52.504;13.358;2022-12-11T01:15:41;100726.94;;;0.30;65.98
41596;BME280;27283;52.504;13.358;2022-12-11T01:18:16;100725.22;;;-0.40;67.69
41596;BME280;27283;52.504;13.358;2022-12-11T01:20:47;100730.84;;;-0.17;67.82
41596;BME280;27283;52.504;13.358;2022-12-11T01:23:39;100734.84;;;-0.39;68.61
41596;BME280;27283;52.504;13.358;2022-12-11T01:26:14;100737.69;;;-0.42;68.31
41596;BME280;27283;52.504;13.358;2022-12-11T01:28:51;100728.81;;;0.01;67.62
41596;BME280;27283;52.504;13.358;2022-12-11T01:31:23;100736.38;;;0.07;67.11
41596;BME280;27283;52.504;13.358;2022-12-11T01:33:56;100731.72;;;0.38;66.44
41596;BME280;27283;52.504;13.358;2022-12-11T01:36:27;100737.97;;;0.37;66.60
41596;BME280;27283;52.504;13.358;2022-12-11T01:39:09;100721.97;;;0.65;65.81
41596;BME280;27283;52.504;13.358;2022-12-11T01:41:59;100730.69;;;0.80;64.97
41596;BME280;27283;52.504;13.358;2022-12-11T01:47:58;100719.78;;;0.45;65.70
41596;BME280;27283;52.504;13.358;2022-12-11T01:50:44;100712.88;;;0.69;65.13
41596;BME280;27283;52.504;13.358;2022-12-11T01:53:22;100721.44;;;0.33;65.83
41596;BME280;27283;52.504;13.358;2022-12-11T01:55:58;100724.66;;;0.51;65.97
41596;BME280;27283;52.504;13.358;2022-12-11T01:58:34;100731.78;;;0.23;66.26
41596;BME280;27283;52.504;13.358;2022-12-11T02:01:16;100737.84;;;-0.16;68.25
41596;BME280;27283;52.504;13.358;2022-12-11T02:03:54;100744.59;;;0.02;67.77
41596;BME280;27283;52.504;13.358;2022-12-11T02:06:35;100736.13;;;0.24;67.36
41596;BME280;27283;52.504;13.358;2022-12-11T02:09:15;100731.44;;;-0.27;68.83
41596;BME280;27283;52.504;13.358;2022-12-11T02:11:57;100721.34;;;-0.34;69.71
41596;BME280;27283;52.504;13.358;2022-12-11T02:14:35;100737.91;;;-0.04;69.06
41596;BME280;27283;52.504;13.358;2022-12-11T02:17:13;100731.81;;;0.09;68.02
41596;BME280;27283;52.504;13.358;2022-12-11T02:19:58;100735.09;;;-0.15;69.26
41596;BME280;27283;52.504;13.358;2022-12-11T02:23:05;100732.75;;;-0.20;69.34
41596;BME280;27283;52.504;13.358;2022-12-11T02:25:53;100727.28;;;0.11;69.05
41596;BME280;27283;52.504;13.358;2022-12-11T02:28:35;100736.03;;;-0.30;69.79
41596;BME280;27283;52.504;13.358;2022-12-11T02:31:16;100744.84;;;-0.30;70.43
41596;BME280;27283;52.504;13.358;2022-12-11T02:33:55;100734.66;;;0.33;69.13
41596;BME280;27283;52.504;13.358;2022-12-11T02:36:34;100736.06;;;-0.45;70.23
41596;BME280;27283;52.504;13.358;2022-12-11T02:39:12;100728.22;;;-0.61;71.87
41596;BME280;27283;52.504;13.358;2022-12-11T02:41:49;100725.69;;;-0.62;71.91
41596;BME280;27283;52.504;13.358;2022-12-11T02:44:27;100719.63;;;-0.50;71.96
41596;BME280;27283;52.504;13.358;2022-12-11T02:47:03;100718.41;;;-0.30;71.23
41596;BME280;27283;52.504;13.358;2022-12-11T02:49:44;100711.75;;;-0.64;72.26
41596;BME280;27283;52.504;13.358;2022-12-11T02:52:20;100723.66;;;-0.15;71.14
41596;BME280;27283;52.504;13.358;2022-12-11T02:54:58;100718.06;;;-0.11;70.19
41596;BME280;27283;52.504;13.358;2022-12-11T02:57:37;100705.84;;;-0.12;70.81
41596;BME280;27283;52.504;13.358;2022-12-11T03:00:14;100717.75;;;-0.33;71.10
41596;BME280;27283;52.504;13.358;2022-12-11T03:02:47;100722.38;;;-0.37;71.16
41596;BME280;27283;52.504;13.358;2022-12-11T03:05:19;100729.03;;;-0.03;70.51
41596;BME280;27283;52.504;13.358;2022-12-11T03:07:51;100725.38;;;-0.14;70.03
41596;BME280;27283;52.504;13.358;2022-12-11T03:10:23;100718.28;;;-0.14;70.67
41596;BME280;27283;52.504;13.358;2022-12-11T03:12:57;100723.25;;;-0.51;71.59
41596;BME280;27283;52.504;13.358;2022-12-11T03:15:38;100723.53;;;-0.84;73.09
41596;BME280;27283;52.504;13.358;2022-12-11T03:18:16;100721.25;;;-0.91;74.26
41596;BME280;27283;52.504;13.358;2022-12-11T03:20:59;100724.28;;;-0.82;74.00
41596;BME280;27283;52.504;13.358;2022-12-11T03:23:38;100729.47;;;-0.66;73.34
41596;BME280;27283;52.504;13.358;2022-12-11T03:26:13;100719.75;;;-0.80;73.30
41596;BME280;27283;52.504;13.358;2022-12-11T03:28:50;100725.78;;;-0.64;73.40
41596;BME280;27283;52.504;13.358;2022-12-11T03:31:33;100728.81;;;0.01;71.52
41596;BME280;27283;52.504;13.358;2022-12-11T03:34:15;100725.97;;;-0.38;72.06
41596;BME280;27283;52.504;13.358;2022-12-11T03:36:50;100726.66;;;-0.63;73.40
41596;BME280;27283;52.504;13.358;2022-12-11T03:39:28;100726.34;;;-0.73;74.48
41596;BME280;27283;52.504;13.358;2022-12-11T03:42:05;100728.13;;;-0.30;72.69
41596;BME280;27283;52.504;13.358;2022-12-11T03:44:39;100729.97;;;-0.04;71.67
41596;BME280;27283;52.504;13.358;2022-12-11T03:47:19;100726.44;;;-0.31;72.89
41596;BME280;27283;52.504;13.358;2022-12-11T03:49:52;100723.81;;;-0.89;74.65
41596;BME280;27283;52.504;13.358;2022-12-11T03:52:27;100718.34;;;-0.72;74.68
41596;BME280;27283;52.504;13.358;2022-12-11T03:55:00;100715.03;;;-0.46;73.84
41596;BME280;27283;52.504;13.358;2022-12-11T03:57:35;100721.19;;;-0.04;72.11
41596;BME280;27283;52.504;13.358;2022-12-11T04:00:11;100722.56;;;-0.55;73.49
41596;BME280;27283;52.504;13.358;2022-12-11T04:02:48;100712.38;;;-0.61;74.10
41596;BME280;27283;52.504;13.358;2022-12-11T04:05:40;100716.75;;;-0.45;73.95
41596;BME280;27283;52.504;13.358;2022-12-11T04:08:12;100717.78;;;-0.48;74.01
41596;BME280;27283;52.504;13.358;2022-12-11T04:10:44;100716.94;;;-0.63;74.78
41596;BME280;27283;52.504;13.358;2022-12-11T04:16:30;100711.03;;;-0.25;73.57
41596;BME280;27283;52.504;13.358;2022-12-11T04:19:08;100706.03;;;0.12;71.95
41596;BME280;27283;52.504;13.358;2022-12-11T04:21:52;100711.94;;;-0.11;72.35
41596;BME280;27283;52.504;13.358;2022-12-11T04:24:36;100702.38;;;0.55;70.42
41596;BME280;27283;52.504;13.358;2022-12-11T04:27:08;100699.00;;;0.66;69.97
41596;BME280;27283;52.504;13.358;2022-12-11T04:29:40;100700.81;;;0.65;70.43
41596;BME280;27283;52.504;13.358;2022-12-11T04:32:14;100705.38;;;0.89;69.33
41596;BME280;27283;52.504;13.358;2022-12-11T04:34:51;100701.69;;;-0.16;71.76
41596;BME280;27283;52.504;13.358;2022-12-11T04:37:26;100702.59;;;-0.59;73.72
41596;BME280;27283;52.504;13.358;2022-12-11T04:39:58;100699.50;;;-0.80;74.67
41596;BME280;27283;52.504;13.358;2022-12-11T04:42:31;100697.03;;;-0.83;75.66
41596;BME280;27283;52.504;13.358;2022-12-11T04:45:05;100694.00;;;-0.62;74.91
41596;BME280;27283;52.504;13.358;2022-12-11T04:47:39;100695.69;;;-0.61;75.23
41596;BME280;27283;52.504;13.358;2022-12-11T04:50:15;100696.25;;;-0.56;74.60
41596;BME280;27283;52.504;13.358;2022-12-11T04:52:47;100687.31;;;-0.12;73.94
41596;BME280;27283;52.504;13.358;2022-12-11T04:55:19;100695.19;;;0.03;72.55
41596;BME280;27283;52.504;13.358;2022-12-11T04:57:51;100693.22;;;-0.36;73.79
41596;BME280;27283;52.504;13.358;2022-12-11T05:00:24;100692.00;;;-0.30;73.86
41596;BME280;27283;52.504;13.358;2022-12-11T05:02:56;100693.88;;;-0.32;73.39
41596;BME280;27283;52.504;13.358;2022-12-11T05:05:31;100698.06;;;-0.57;74.62
41596;BME280;27283;52.504;13.358;2022-12-11T05:08:03;100701.63;;;-0.86;75.35
41596;BME280;27283;52.504;13.358;2022-12-11T05:10:36;100703.78;;;-1.08;76.05
41596;BME280;27283;52.504;13.358;2022-12-11T05:13:13;100697.88;;;-0.82;76.00
41596;BME280;27283;52.504;13.358;2022-12-11T05:15:45;100690.69;;;-1.09;76.16
41596;BME280;27283;52.504;13.358;2022-12-11T05:18:17;100697.56;;;-1.07;76.78
41596;BME280;27283;52.504;13.358;2022-12-11T05:20:58;100691.09;;;-1.01;76.55
41596;BME280;27283;52.504;13.358;2022-12-11T05:23:29;100690.78;;;-0.82;76.63
41596;BME280;27283;52.504;13.358;2022-12-11T05:26:03;100696.94;;;-0.81;75.61
41596;BME280;27283;52.504;13.358;2022-12-11T05:28:37;100693.59;;;-1.14;76.84
41596;BME280;27283;52.504;13.358;2022-12-11T05:31:12;100684.34;;;-1.21;77.78
41596;BME280;27283;52.504;13.358;2022-12-11T05:33:46;100687.19;;;-0.95;76.79
41596;BME280;27283;52.504;13.358;2022-12-11T05:36:23;100687.78;;;-0.61;76.31
41596;BME280;27283;52.504;13.358;2022-12-11T05:38:56;100684.66;;;-0.54;75.16
41596;BME280;27283;52.504;13.358;2022-12-11T05:41:30;100686.47;;;-0.83;76.48
41596;BME280;27283;52.504;13.358;2022-12-11T05:44:02;100688.63;;;-0.46;75.78
41596;BME280;27283;52.504;13.358;2022-12-11T05:46:34;100691.31;;;-0.19;74.19
41596;BME280;27283;52.504;13.358;2022-12-11T05:49:06;100681.25;;;0.01;73.89
41596;BME280;27283;52.504;13.358;2022-12-11T05:51:40;100683.28;;;0.10;73.30
41596;BME280;27283;52.504;13.358;2022-12-11T05:54:12;100693.22;;;-0.36;73.85
41596;BME280;27283;52.504;13.358;2022-12-11T05:56:44;100679.09;;;-0.49;74.68
41596;BME280;27283;52.504;13.358;2022-12-11T05:59:16;100685.41;;;-0.37;74.28
41596;BME280;27283;52.504;13.358;2022-12-11T06:01:49;100683.28;;;-0.17;73.61
41596;BME280;27283;52.504;13.358;2022-12-11T06:04:21;100677.75;;;0.27;72.13
41596;BME280;27283;52.504;13.358;2022-12-11T06:06:56;100676.75;;;0.15;72.08
41596;BME280;27283;52.504;13.358;2022-12-11T06:09:27;100678.69;;;0.26;71.69
41596;BME280;27283;52.504;13.358;2022-12-11T06:11:59;100669.56;;;0.17;71.95
41596;BME280;27283;52.504;13.358;2022-12-11T06:14:31;100676.06;;;-0.01;71.33
41596;BME280;27283;52.504;13.358;2022-12-11T06:17:03;100669.44;;;-0.36;73.63
41596;BME280;27283;52.504;13.358;2022-12-11T06:19:34;100678.88;;;-0.46;74.16
41596;BME280;27283;52.504;13.358;2022-12-11T06:22:09;100673.53;;;-0.17;72.89
41596;BME280;27283;52.504;13.358;2022-12-11T06:24:40;100679.31;;;-0.10;72.44
41596;BME280;27283;52.504;13.358;2022-12-11T06:27:12;100677.66;;;0.02;72.53
41596;BME280;27283;52.504;13.358;2022-12-11T06:29:46;100677.16;;;0.09;71.84
41596;BME280;27283;52.504;13.358;2022-12-11T06:32:18;100669.88;;;0.13;70.99
41596;BME280;27283;52.504;13.358;2022-12-11T06:34:49;100667.41;;;-0.17;71.29
41596;BME280;27283;52.504;13.358;2022-12-11T06:37:24;100684.47;;;-0.36;71.18
41596;BME280;27283;52.504;13.358;2022-12-11T06:39:55;100674.13;;;-0.12;69.28
41596;BME280;27283;52.504;13.358;2022-12-11T06:42:28;100677.56;;;-0.39;69.17
41596;BME280;27283;52.504;13.358;2022-12-11T06:45:00;100683.28;;;-0.17;68.24
41596;BME280;27283;52.504;13.358;2022-12-11T06:47:32;100693.09;;;-0.20;67.15
41596;BME280;27283;52.504;13.358;2022-12-11T06:50:04;100692.63;;;-0.26;66.45
41596;BME280;27283;52.504;13.358;2022-12-11T06:52:38;100700.03;;;-0.46;67.89
41596;BME280;27283;52.504;13.358;2022-12-11T06:55:10;100691.75;;;-0.12;66.72
41596;BME280;27283;52.504;13.358;2022-12-11T06:57:42;100701.25;;;0.05;65.72
41596;BME280;27283;52.504;13.358;2022-12-11T07:00:15;100702.50;;;-0.57;66.14
41596;BME280;27283;52.504;13.358;2022-12-11T07:02:49;100704.28;;;-0.58;65.78
41596;BME280;27283;52.504;13.358;2022-12-11T07:05:21;100699.25;;;-0.33;64.98
41596;BME280;27283;52.504;13.358;2022-12-11T07:07:56;100714.28;;;-0.63;64.54
41596;BME280;27283;52.504;13.358;2022-12-11T07:10:28;100701.81;;;-1.04;66.01
41596;BME280;27283;52.504;13.358;2022-12-11T07:13:00;100696.47;;;-1.02;65.96
41596;BME280;27283;52.504;13.358;2022-12-11T07:15:31;100686.44;;;-0.97;66.31
41596;BME280;27283;52.504;13.358;2022-12-11T07:18:08;100688.34;;;-0.85;65.29
41596;BME280;27283;52.504;13.358;2022-12-11T07:20:40;100694.88;;;-0.62;65.39
41596;BME280;27283;52.504;13.358;2022-12-11T07:23:15;100700.22;;;-1.07;66.31
41596;BME280;27283;52.504;13.358;2022-12-11T07:25:46;100700.75;;;-1.16;67.61
41596;BME280;27283;52.504;13.358;2022-12-11T07:28:18;100703.53;;;-1.33;67.83
41596;BME280;27283;52.504;13.358;2022-12-11T07:30:50;100697.56;;;-1.51;68.17
41596;BME280;27283;52.504;13.358;2022-12-11T07:33:22;100704.09;;;-0.98;67.48
41596;BME280;27283;52.504;13.358;2022-12-11T07:35:54;100708.81;;;-0.88;66.04
41596;BME280;27283;52.504;13.358;2022-12-11T07:38:29;100703.31;;;-1.00;66.04
41596;BME280;27283;52.504;13.358;2022-12-11T07:41:00;100702.09;;;-1.09;66.21
41596;BME280;27283;52.504;13.358;2022-12-11T07:43:33;100698.09;;;-1.30;67.05
41596;BME280;27283;52.504;13.358;2022-12-11T07:46:07;100708.31;;;-0.95;66.49
41596;BME280;27283;52.504;13.358;2022-12-11T07:48:41;100711.72;;;-0.93;65.75
41596;BME280;27283;52.504;13.358;2022-12-11T07:51:14;100725.41;;;-0.72;64.99
41596;BME280;27283;52.504;13.358;2022-12-11T07:53:50;100727.19;;;-0.87;65.18
41596;BME280;27283;52.504;13.358;2022-12-11T07:56:22;100719.06;;;-0.69;64.84
41596;BME280;27283;52.504;13.358;2022-12-11T07:58:54;100708.06;;;-0.91;65.59
41596;BME280;27283;52.504;13.358;2022-12-11T08:01:27;100713.50;;;-0.94;66.48
41596;BME280;27283;52.504;13.358;2022-12-11T08:03:59;100711.53;;;-0.76;65.97
41596;BME280;27283;52.504;13.358;2022-12-11T08:06:33;100711.56;;;-0.61;66.33
41596;BME280;27283;52.504;13.358;2022-12-11T08:09:11;100713.53;;;-0.79;65.97
41596;BME280;27283;52.504;13.358;2022-12-11T08:11:49;100717.28;;;-0.40;65.36
41596;BME280;27283;52.504;13.358;2022-12-11T08:14:21;100714.25;;;-0.20;64.33
41596;BME280;27283;52.504;13.358;2022-12-11T08:16:53;100713.91;;;-0.42;64.77
41596;BME280;27283;52.504;13.358;2022-12-11T08:19:25;100716.44;;;-0.69;66.04
41596;BME280;27283;52.504;13.358;2022-12-11T08:21:57;100718.81;;;-0.65;66.29
41596;BME280;27283;52.504;13.358;2022-12-11T08:24:31;100720.56;;;-0.37;64.91
41596;BME280;27283;52.504;13.358;2022-12-11T08:27:02;100718.41;;;-0.30;65.03
41596;BME280;27283;52.504;13.358;2022-12-11T08:29:34;100719.16;;;-0.28;64.56
41596;BME280;27283;52.504;13.358;2022-12-11T08:32:05;100712.66;;;-0.65;65.95
41596;BME280;27283;52.504;13.358;2022-12-11T08:34:39;100721.31;;;-0.20;64.43
41596;BME280;27283;52.504;13.358;2022-12-11T08:37:11;100721.69;;;-0.26;64.51
41596;BME280;27283;52.504;13.358;2022-12-11T08:39:45;100724.19;;;-0.38;64.47
41596;BME280;27283;52.504;13.358;2022-12-11T08:42:17;100722.22;;;-0.07;63.81
41596;BME280;27283;52.504;13.358;2022-12-11T08:44:48;100727.03;;;0.01;63.44
41596;BME280;27283;52.504;13.358;2022-12-11T08:47:20;100722.63;;;-0.27;63.73
41596;BME280;27283;52.504;13.358;2022-12-11T08:49:52;100724.22;;;-0.10;64.53
41596;BME280;27283;52.504;13.358;2022-12-11T08:52:23;100715.25;;;0.20;63.18
41596;BME280;27283;52.504;13.358;2022-12-11T08:54:58;100724.19;;;0.31;63.21
41596;BME280;27283;52.504;13.358;2022-12-11T15:12:09;100541.97;;;0.01;70.26
41596;BME280;27283;52.504;13.358;2022-12-11T15:14:47;100541.19;;;-0.54;71.89
41596;BME280;27283;52.504;13.358;2022-12-11T15:17:21;100545.41;;;-0.24;71.26
41596;BME280;27283;52.504;13.358;2022-12-11T15:20:01;100545.91;;;-0.32;71.60
41596;BME280;27283;52.504;13.358;2022-12-11T15:22:35;100553.72;;;0.23;70.19
41596;BME280;27283;52.504;13.358;2022-12-11T15:25:17;100549.22;;;0.50;68.26
41596;BME280;27283;52.504;13.358;2022-12-11T15:28:02;100551.97;;;0.23;69.58
41596;BME280;27283;52.504;13.358;2022-12-11T15:30:35;100550.78;;;0.14;70.33
41596;BME280;27283;52.504;13.358;2022-12-11T15:33:28;100554.81;;;0.20;69.53
41596;BME280;27283;52.504;13.358;2022-12-11T15:36:05;100551.97;;;0.23;70.10
41596;BME280;27283;52.504;13.358;2022-12-11T15:38:38;100557.03;;;0.26;69.74
41596;BME280;27283;52.504;13.358;2022-12-11T15:41:14;100542.91;;;-0.13;71.14
41596;BME280;27283;52.504;13.358;2022-12-11T15:43:52;100544.09;;;0.09;70.15
41596;BME280;27283;52.504;13.358;2022-12-11T15:46:26;100544.97;;;0.22;69.58
41596;BME280;27283;52.504;13.358;2022-12-11T15:48:58;100545.28;;;0.17;69.78
41596;BME280;27283;52.504;13.358;2022-12-11T15:51:29;100545.50;;;0.40;69.20
41596;BME280;27283;52.504;13.358;2022-12-11T15:54:04;100543.06;;;-0.29;71.29
41596;BME280;27283;52.504;13.358;2022-12-11T15:56:35;100532.44;;;-0.02;71.44
41596;BME280;27283;52.504;13.358;2022-12-11T15:59:10;100529.13;;;0.61;69.17
41596;BME280;27283;52.504;13.358;2022-12-11T16:01:41;100542.66;;;0.69;68.54
41596;BME280;27283;52.504;13.358;2022-12-11T16:04:13;100544.88;;;0.62;68.98
41596;BME280;27283;52.504;13.358;2022-12-11T16:06:45;100557.31;;;0.09;70.35
41596;BME280;27283;52.504;13.358;2022-12-11T16:09:16;100564.19;;;-0.29;72.04
41596;BME280;27283;52.504;13.358;2022-12-11T16:11:53;100567.81;;;-0.57;73.76
41596;BME280;27283;52.504;13.358;2022-12-11T16:14:28;100559.66;;;0.01;71.63
41596;BME280;27283;52.504;13.358;2022-12-11T16:17:00;100560.31;;;0.30;71.23
41596;BME280;27283;52.504;13.358;2022-12-11T16:19:32;100560.00;;;0.22;70.50
41596;BME280;27283;52.504;13.358;2022-12-11T16:22:06;100558.94;;;0.63;69.66
41596;BME280;27283;52.504;13.358;2022-12-11T16:24:39;100557.56;;;0.83;68.75
41596;BME280;27283;52.504;13.358;2022-12-11T16:27:12;100550.19;;;0.62;68.72
41596;BME280;27283;52.504;13.358;2022-12-11T16:29:53;100552.06;;;-0.19;71.74
41596;BME280;27283;52.504;13.358;2022-12-11T16:32:25;100549.38;;;0.09;72.03
41596;BME280;27283;52.504;13.358;2022-12-11T16:35:00;100546.38;;;-0.25;72.59
41596;BME280;27283;52.504;13.358;2022-12-11T16:37:33;100556.69;;;-0.35;73.37
41596;BME280;27283;52.504;13.358;2022-12-11T16:40:07;100553.72;;;-0.30;72.98
41596;BME280;27283;52.504;13.358;2022-12-11T16:42:42;100546.25;;;-0.24;72.69
41596;BME280;27283;52.504;13.358;2022-12-11T16:49:20;100554.13;;;-0.37;73.21
41596;BME280;27283;52.504;13.358;2022-12-11T16:52:24;100544.78;;;-0.55;74.38
41596;BME280;27283;52.504;13.358;2022-12-11T16:54:56;100551.78;;;-0.14;73.35
41596;BME280;27283;52.504;13.358;2022-12-11T16:57:29;100537.94;;;-0.05;72.72
41596;BME280;27283;52.504;13.358;2022-12-11T17:00:03;100538.84;;;0.22;71.65
41596;BME280;27283;52.504;13.358;2022-12-11T17:02:36;100550.56;;;0.17;71.58
41596;BME280;27283;52.504;13.358;2022-12-11T17:05:12;100538.09;;;0.20;71.57
41596;BME280;27283;52.504;13.358;2022-12-11T17:07:44;100543.94;;;-0.28;73.50
41596;BME280;27283;52.504;13.358;2022-12-11T17:10:17;100540.09;;;0.03;72.61
41596;BME280;27283;52.504;13.358;2022-12-11T17:12:49;100534.41;;;-0.31;74.12
41596;BME280;27283;52.504;13.358;2022-12-11T17:15:22;100536.84;;;-0.28;74.17
41596;BME280;27283;52.504;13.358;2022-12-11T17:17:54;100541.44;;;-0.04;73.80
41596;BME280;27283;52.504;13.358;2022-12-11T17:20:29;100537.00;;;-0.04;73.02
41596;BME280;27283;52.504;13.358;2022-12-11T17:23:02;100540.03;;;-0.23;74.05
41596;BME280;27283;52.504;13.358;2022-12-11T17:25:38;100536.78;;;-0.13;73.84
41596;BME280;27283;52.504;13.358;2022-12-11T17:28:11;100541.78;;;0.30;72.73
41596;BME280;27283;52.504;13.358;2022-12-11T17:30:44;100531.25;;;0.43;71.77
41596;BME280;27283;52.504;13.358;2022-12-11T17:33:18;100530.56;;;0.13;72.69
41596;BME280;27283;52.504;13.358;2022-12-11T17:35:53;100524.84;;;-0.46;76.01
41596;BME280;27283;52.504;13.358;2022-12-11T17:38:25;100525.16;;;-0.38;76.06
41596;BME280;27283;52.504;13.358;2022-12-11T17:40:58;100530.25;;;0.18;73.68
41596;BME280;27283;52.504;13.358;2022-12-11T17:43:30;100521.44;;;-0.08;74.40
41596;BME280;27283;52.504;13.358;2022-12-11T17:46:04;100530.25;;;0.05;74.39
41596;BME280;27283;52.504;13.358;2022-12-11T17:48:36;100530.31;;;-0.09;74.64
41596;BME280;27283;52.504;13.358;2022-12-11T17:51:12;100526.78;;;0.05;74.63
41596;BME280;27283;52.504;13.358;2022-12-11T17:53:49;100531.44;;;0.40;73.91
41596;BME280;27283;52.504;13.358;2022-12-11T17:56:22;100532.56;;;-0.03;74.64
41596;BME280;27283;52.504;13.358;2022-12-11T17:58:54;100537.34;;;0.17;74.67
41596;BME280;27283;52.504;13.358;2022-12-11T18:01:26;100531.13;;;0.31;74.29
41596;BME280;27283;52.504;13.358;2022-12-11T18:04:00;100527.75;;;-0.24;76.21
41596;BME280;27283;52.504;13.358;2022-12-11T18:06:35;100528.47;;;0.19;75.21
41596;BME280;27283;52.504;13.358;2022-12-11T18:09:07;100534.72;;;0.30;74.07
41596;BME280;27283;52.504;13.358;2022-12-11T18:11:39;100535.88;;;0.39;73.99
41596;BME280;27283;52.504;13.358;2022-12-11T18:14:11;100529.41;;;0.17;74.51
41596;BME280;27283;52.504;13.358;2022-12-11T18:16:45;100531.16;;;-0.22;75.93
41596;BME280;27283;52.504;13.358;2022-12-11T18:19:17;100530.63;;;-0.27;76.42
41596;BME280;27283;52.504;13.358;2022-12-11T18:21:53;100524.97;;;0.05;76.24
41596;BME280;27283;52.504;13.358;2022-12-11T18:24:29;100527.94;;;0.39;74.07
41596;BME280;27283;52.504;13.358;2022-12-11T18:27:02;100534.94;;;0.27;74.78
41596;BME280;27283;52.504;13.358;2022-12-11T18:29:37;100525.28;;;0.01;75.87
41596;BME280;27283;52.504;13.358;2022-12-11T18:32:10;100522.00;;;0.23;75.25
41596;BME280;27283;52.504;13.358;2022-12-11T18:34:41;100529.53;;;0.42;74.11
41596;BME280;27283;52.504;13.358;2022-12-11T18:37:16;100527.94;;;0.65;73.69
41596;BME280;27283;52.504;13.358;2022-12-11T18:39:55;100529.75;;;0.26;74.64
41596;BME280;27283;52.504;13.358;2022-12-11T18:42:27;100534.59;;;0.19;74.79
41596;BME280;27283;52.504;13.358;2022-12-11T18:45:01;100539.88;;;0.19;75.78
41596;BME280;27283;52.504;13.358;2022-12-11T18:47:34;100538.75;;;0.49;74.01
41596;BME280;27283;52.504;13.358;2022-12-11T18:50:07;100532.75;;;-0.19;76.15
41596;BME280;27283;52.504;13.358;2022-12-11T18:52:42;100530.47;;;0.02;75.88
41596;BME280;27283;52.504;13.358;2022-12-11T18:55:14;100531.44;;;0.27;74.89
41596;BME280;27283;52.504;13.358;2022-12-11T18:57:46;100526.91;;;0.29;74.26
41596;BME280;27283;52.504;13.358;2022-12-11T19:00:18;100530.84;;;-0.17;76.45
41596;BME280;27283;52.504;13.358;2022-12-11T19:02:51;100520.75;;;0.28;74.58
41596;BME280;27283;52.504;13.358;2022-12-11T19:05:22;100515.91;;;0.35;73.38
41596;BME280;27283;52.504;13.358;2022-12-11T19:07:56;100529.88;;;0.24;73.62
41596;BME280;27283;52.504;13.358;2022-12-11T19:10:28;100530.50;;;0.53;72.97
41596;BME280;27283;52.504;13.358;2022-12-11T19:13:00;100525.19;;;0.28;73.54
41596;BME280;27283;52.504;13.358;2022-12-11T19:15:31;100514.88;;;-0.15;74.80
41596;BME280;27283;52.504;13.358;2022-12-11T19:18:03;100521.53;;;-0.23;75.60
41596;BME280;27283;52.504;13.358;2022-12-11T19:20:36;100516.16;;;-0.48;77.19
41596;BME280;27283;52.504;13.358;2022-12-11T19:23:33;100523.91;;;0.21;75.11
41596;BME280;27283;52.504;13.358;2022-12-11T19:26:09;100525.69;;;0.07;75.08
41596;BME280;27283;52.504;13.358;2022-12-11T19:28:41;100530.25;;;0.18;74.64
41596;BME280;27283;52.504;13.358;2022-12-11T19:31:14;100526.88;;;-0.37;76.13
41596;BME280;27283;52.504;13.358;2022-12-11T19:33:47;100530.72;;;-0.15;75.93
41596;BME280;27283;52.504;13.358;2022-12-11T19:36:21;100531.31;;;-0.38;76.14
41596;BME280;27283;52.504;13.358;2022-12-11T19:38:56;100534.97;;;-0.95;78.28
41596;BME280;27283;52.504;13.358;2022-12-11T19:41:30;100531.78;;;-0.58;78.05
41596;BME280;27283;52.504;13.358;2022-12-11T19:44:02;100531.91;;;-0.20;76.42
41596;BME280;27283;52.504;13.358;2022-12-11T19:46:35;100542.97;;;0.39;73.96